Time;durP1;ratioP1;P1;durP2;ratioP2;P2;SDS_P1;SDS_P2;PMS_P1;PMS_P2;Temp;Humidity;BMP_temperature;BMP_pressure;BME280_temperature;BME280_humidity;BME280_pressure;Samples;Min_cycle;Max_cycle;Signal;HPM_P1;HPM_P2
2022/05/16 00:01:20;;;;;;;11.17;5.13;;;13.70;99.90;;;;;;5054195;28;20040;-82
2022/05/16 00:03:46;;;;;;;11.60;5.70;;;13.70;99.90;;;;;;5021012;28;20282;-82
2022/05/16 00:06:12;;;;;;;11.20;4.70;;;13.70;99.90;;;;;;5053741;28;20385;-82
2022/05/16 00:08:37;;;;;;;9.88;4.90;;;13.70;99.90;;;;;;5037224;28;20037;-82
2022/05/16 00:11:03;;;;;;;11.30;5.00;;;13.60;99.90;;;;;;5054116;28;20041;-82
2022/05/16 00:13:29;;;;;;;7.78;4.50;;;13.60;99.90;;;;;;5037191;28;20032;-82
2022/05/16 00:15:55;;;;;;;11.60;4.97;;;13.70;99.90;;;;;;5053611;28;20040;-82
2022/05/16 00:18:22;;;;;;;10.75;4.88;;;13.70;99.90;;;;;;5017207;28;20144;-82
2022/05/16 00:20:47;;;;;;;9.68;4.63;;;13.60;99.90;;;;;;5050562;28;20040;-82
2022/05/16 00:23:13;;;;;;;11.25;4.88;;;13.60;99.90;;;;;;5050375;28;20037;-82
2022/05/16 00:25:39;;;;;;;10.68;4.80;;;13.60;99.90;;;;;;5050143;28;20122;-82
2022/05/16 00:28:05;;;;;;;8.75;5.03;;;13.60;99.90;;;;;;5034015;28;20481;-82
2022/05/16 00:30:31;;;;;;;11.13;4.68;;;13.60;99.90;;;;;;5033494;28;20056;-82
2022/05/16 00:32:57;;;;;;;10.73;4.90;;;13.50;99.90;;;;;;5033766;28;20122;-81
2022/05/16 00:35:23;;;;;;;9.63;4.65;;;13.50;99.90;;;;;;5050389;28;20092;-81
2022/05/16 00:37:49;;;;;;;8.00;4.60;;;13.50;99.90;;;;;;5050019;28;20120;-82
2022/05/16 00:40:17;;;;;;;8.98;4.32;;;13.40;99.90;;;;;;5033530;28;20049;-81
2022/05/16 00:42:43;;;;;;;8.80;4.80;;;13.40;99.90;;;;;;5050235;28;20041;-82
2022/05/16 00:45:10;;;;;;;7.90;4.90;;;13.40;99.90;;;;;;5033187;28;20127;-81
2022/05/16 00:47:36;;;;;;;10.98;4.78;;;13.30;99.90;;;;;;5033428;28;20037;-82
2022/05/16 00:50:04;;;;;;;10.43;4.75;;;13.40;99.90;;;;;;5016805;28;20033;-82
2022/05/16 00:52:34;;;;;;;9.98;4.78;;;13.30;99.90;;;;;;5049157;28;20033;-82
2022/05/16 00:55:08;;;;;;;8.57;4.40;;;13.30;99.90;;;;;;5048054;28;20519;-82
2022/05/16 00:57:44;;;;;;;8.70;4.90;;;13.30;99.90;;;;;;5049849;28;20043;-81
2022/05/16 01:00:32;;;;;;;8.43;4.60;;;13.30;99.90;;;;;;5033164;28;20033;-82
2022/05/16 01:05:45;;;;;;;8.68;4.60;;;13.10;99.90;;;;;;5049426;28;20053;-81
2022/05/16 01:08:15;;;;;;;8.15;4.45;;;13.10;99.90;;;;;;5049543;28;20048;-82
2022/05/16 01:10:41;;;;;;;6.60;4.10;;;13.10;99.90;;;;;;5049473;28;20072;-83
2022/05/16 01:13:07;;;;;;;7.40;4.38;;;13.10;99.90;;;;;;5033017;28;20079;-81
2022/05/16 01:15:36;;;;;;;;;;;13.10;99.90;;;;;;5049598;28;20037;-81
2022/05/16 01:18:05;;;;;;;10.68;4.53;;;13.10;99.90;;;;;;5048947;28;19920;-82
2022/05/16 01:21:08;;;;;;;6.95;4.15;;;13.00;99.90;;;;;;5049085;28;20533;-82
2022/05/16 01:23:47;;;;;;;6.55;3.95;;;13.00;99.90;;;;;;5047202;28;20132;-82
2022/05/16 01:26:18;;;;;;;9.30;4.47;;;13.00;99.90;;;;;;5047258;28;20041;-81
2022/05/16 01:28:44;;;;;;;9.63;4.20;;;12.90;99.90;;;;;;5032520;28;20041;-81
2022/05/16 01:31:09;;;;;;;7.80;3.95;;;12.90;99.90;;;;;;5049064;28;20393;-81
2022/05/16 01:33:35;;;;;;;7.10;4.28;;;12.90;99.90;;;;;;5049174;28;20064;-81
2022/05/16 01:36:01;;;;;;;8.43;4.28;;;12.80;99.90;;;;;;5032131;28;20586;-82
2022/05/16 01:38:28;;;;;;;7.13;3.75;;;12.80;99.90;;;;;;5049148;28;20158;-83
2022/05/16 01:41:02;;;;;;;7.28;3.80;;;12.80;99.90;;;;;;5032963;28;20067;-83
2022/05/16 01:43:42;;;;;;;7.25;3.60;;;12.80;99.90;;;;;;5064307;28;20110;-82
2022/05/16 01:46:09;;;;;;;6.72;3.88;;;12.70;99.90;;;;;;5049020;28;20051;-82
2022/05/16 01:48:35;;;;;;;7.05;3.65;;;12.70;99.90;;;;;;5048939;28;20040;-83
2022/05/16 01:51:05;;;;;;;8.60;4.13;;;12.70;99.90;;;;;;5049252;28;20069;-82
2022/05/16 01:53:31;;;;;;;7.20;3.90;;;12.70;99.90;;;;;;5048964;28;20033;-82
2022/05/16 01:55:57;;;;;;;6.10;3.58;;;12.60;99.90;;;;;;5016184;28;20440;-83
2022/05/16 01:58:24;;;;;;;7.70;3.78;;;12.60;99.90;;;;;;5032651;28;20037;-82
2022/05/16 02:00:51;;;;;;;7.40;3.78;;;12.60;99.90;;;;;;5032819;28;20044;-82
2022/05/16 02:03:17;;;;;;;9.60;3.85;;;12.60;99.90;;;;;;5048942;28;20033;-82
2022/05/16 02:05:44;;;;;;;7.30;3.65;;;12.50;99.90;;;;;;5032149;28;20033;-82
2022/05/16 02:08:11;;;;;;;7.40;3.60;;;12.50;99.90;;;;;;5048925;28;20076;-82
2022/05/16 02:10:37;;;;;;;7.68;3.40;;;12.50;99.90;;;;;;5030564;28;20037;-82
2022/05/16 02:13:03;;;;;;;4.50;3.03;;;12.50;99.90;;;;;;5048939;28;20048;-83
2022/05/16 02:15:32;;;;;;;6.05;2.95;;;12.50;99.90;;;;;;5031923;28;20033;-81
2022/05/16 02:17:58;;;;;;;6.03;3.40;;;12.40;99.90;;;;;;5048947;28;20504;-82
2022/05/16 02:20:25;;;;;;;8.68;3.15;;;12.40;99.90;;;;;;5049096;28;20106;-82
2022/05/16 02:25:39;;;;;;;5.40;3.00;;;12.40;99.90;;;;;;5034050;28;20409;-82
2022/05/16 02:28:09;;;;;;;5.03;2.75;;;12.40;99.90;;;;;;5032161;28;20044;-82
2022/05/16 02:30:36;;;;;;;4.38;2.60;;;12.30;99.90;;;;;;5050063;28;20040;-82
2022/05/16 02:33:03;;;;;;;6.47;2.60;;;12.30;99.90;;;;;;5051981;28;20090;-83
2022/05/16 02:35:30;;;;;;;5.93;2.67;;;12.30;99.90;;;;;;5052158;28;20056;-81
2022/05/16 02:37:58;;;;;;;4.10;2.65;;;12.30;99.90;;;;;;5035829;28;20047;-82
2022/05/16 02:40:30;;;;;;;4.93;2.83;;;12.30;99.90;;;;;;5036018;28;20496;-82
2022/05/16 02:42:56;;;;;;;5.70;3.00;;;12.30;99.90;;;;;;5050157;28;20052;-81
2022/05/16 02:45:22;;;;;;;;;;;12.30;99.90;;;;;;5052909;28;20501;-82
2022/05/16 02:47:49;;;;;;;5.22;2.50;;;12.30;99.90;;;;;;5035584;28;19933;-83
2022/05/16 02:50:15;;;;;;;5.72;2.45;;;12.30;99.90;;;;;;5052186;28;20136;-83
2022/05/16 02:52:41;;;;;;;;;;;12.30;99.90;;;;;;5036137;28;20029;-82
2022/05/16 02:55:07;;;;;;;4.47;2.67;;;12.30;99.90;;;;;;5035437;28;19962;-82
2022/05/16 02:57:34;;;;;;;5.63;2.53;;;12.20;99.90;;;;;;5051726;28;20049;-82
2022/05/16 02:59:59;;;;;;;7.07;2.70;;;12.20;99.90;;;;;;5052032;28;20033;-82
2022/05/16 03:02:25;;;;;;;4.10;2.40;;;12.20;99.90;;;;;;5035953;28;20033;-82
2022/05/16 03:04:52;;;;;;;4.78;2.30;;;12.20;99.90;;;;;;5051617;28;20060;-82
2022/05/16 03:07:18;;;;;;;;;;;12.20;99.90;;;;;;5019427;28;20095;-82
2022/05/16 03:09:43;;;;;;;6.18;2.50;;;12.20;99.90;;;;;;5019006;28;19916;-82
2022/05/16 03:12:10;;;;;;;4.07;2.35;;;12.20;99.90;;;;;;5052134;28;20063;-81
2022/05/16 03:14:36;;;;;;;4.70;2.38;;;12.10;99.90;;;;;;5051656;28;20033;-83
2022/05/16 03:17:03;;;;;;;5.65;2.50;;;12.10;99.90;;;;;;5036638;28;20378;-81
2022/05/16 03:19:30;;;;;;;4.60;2.33;;;12.10;99.90;;;;;;5053044;28;20554;-82
2022/05/16 03:21:56;;;;;;;4.95;2.20;;;12.10;99.90;;;;;;5038746;28;20036;-82
2022/05/16 03:24:22;;;;;;;6.88;2.20;;;12.10;99.90;;;;;;5055503;28;20476;-81
2022/05/16 03:26:47;;;;;;;3.65;2.10;;;12.10;99.90;;;;;;5054681;28;20039;-82
2022/05/16 03:29:14;;;;;;;4.78;2.70;;;12.00;99.90;;;;;;5038521;28;20700;-82
2022/05/16 03:31:41;;;;;;;4.78;2.05;;;12.10;99.90;;;;;;5054502;28;20051;-81
2022/05/16 03:34:09;;;;;;;3.13;1.98;;;12.00;99.90;;;;;;5037444;28;20033;-83
2022/05/16 03:36:36;;;;;;;4.15;2.15;;;12.00;99.90;;;;;;5020677;28;20043;-82
2022/05/16 03:41:47;;;;;;;4.78;2.25;;;11.90;99.90;;;;;;5050502;28;20067;-82
2022/05/16 03:44:12;;;;;;;5.00;1.97;;;12.00;99.90;;;;;;5053625;28;20041;-81
2022/05/16 03:46:38;;;;;;;4.70;2.00;;;12.00;99.90;;;;;;5036530;28;20846;-82
2022/05/16 03:49:06;;;;;;;4.67;2.23;;;12.00;99.90;;;;;;5021325;28;20036;-82
2022/05/16 03:51:32;;;;;;;3.67;2.30;;;11.90;99.90;;;;;;5054480;28;20278;-81
2022/05/16 03:53:58;;;;;;;;;;;11.90;99.90;;;;;;5038061;28;20093;-81
2022/05/16 03:56:26;;;;;;;6.85;2.60;;;11.90;99.90;;;;;;5038092;28;19924;-81
2022/05/16 03:58:53;;;;;;;5.03;2.47;;;11.90;99.90;;;;;;5037793;28;20040;-82
2022/05/16 04:01:19;;;;;;;5.15;2.05;;;11.90;99.90;;;;;;5035499;28;20044;-81
2022/05/16 04:03:45;;;;;;;3.63;2.50;;;11.90;99.90;;;;;;5037605;28;20047;-81
2022/05/16 04:06:13;;;;;;;3.78;2.20;;;12.00;99.90;;;;;;5054159;28;20504;-82
2022/05/16 04:08:40;;;;;;;6.07;2.10;;;11.90;99.90;;;;;;5038170;28;20091;-81
2022/05/16 04:11:05;;;;;;;5.13;2.10;;;11.90;99.90;;;;;;5018779;28;20029;-82
2022/05/16 04:13:33;;;;;;;4.32;2.28;;;12.00;99.90;;;;;;5030004;28;20140;-84
2022/05/16 04:15:59;;;;;;;4.05;2.20;;;12.00;99.90;;;;;;5039004;28;20127;-83
2022/05/16 04:18:25;;;;;;;6.35;2.35;;;12.00;99.90;;;;;;5055691;28;20078;-83
2022/05/16 04:20:51;;;;;;;6.03;2.10;;;12.00;99.90;;;;;;5036529;28;20044;-84
2022/05/16 04:23:18;;;;;;;3.97;2.30;;;12.00;99.90;;;;;;5038327;28;20101;-82
2022/05/16 04:25:44;;;;;;;5.68;1.98;;;12.00;99.90;;;;;;5039762;28;20040;-83
2022/05/16 04:28:10;;;;;;;5.63;2.00;;;12.00;99.90;;;;;;5041304;28;20032;-82
2022/05/16 04:30:38;;;;;;;4.10;2.30;;;12.00;99.90;;;;;;5056643;28;20044;-83
2022/05/16 04:33:06;;;;;;;3.88;2.13;;;12.00;99.90;;;;;;5042425;28;20051;-81
2022/05/16 04:35:32;;;;;;;4.97;2.10;;;12.10;99.90;;;;;;5054684;28;20036;-82
2022/05/16 04:37:58;;;;;;;5.70;2.13;;;12.10;99.90;;;;;;5027365;28;20115;-82
2022/05/16 04:40:24;;;;;;;3.20;1.90;;;12.10;99.90;;;;;;5031308;28;20070;-83
2022/05/16 04:42:50;;;;;;;4.50;2.30;;;12.20;99.90;;;;;;5046104;28;20037;-83
2022/05/16 04:45:22;;;;;;;4.93;2.15;;;12.20;99.90;;;;;;5044104;28;20127;-83
2022/05/16 04:47:51;;;;;;;5.22;2.25;;;12.30;99.90;;;;;;5062028;28;20038;-82
2022/05/16 04:50:22;;;;;;;5.15;2.38;;;12.30;99.90;;;;;;5042555;28;20072;-83
2022/05/16 04:52:49;;;;;;;4.68;2.13;;;12.40;99.90;;;;;;5062857;28;20434;-81
2022/05/16 04:55:15;;;;;;;5.80;2.25;;;12.40;99.90;;;;;;5046872;28;20036;-81
2022/05/16 04:57:41;;;;;;;4.25;2.25;;;12.50;99.90;;;;;;5059932;28;20526;-85
2022/05/16 05:00:11;;;;;;;7.38;2.42;;;12.60;99.90;;;;;;5046308;28;20070;-83
2022/05/16 05:02:37;;;;;;;5.32;2.10;;;12.60;99.90;;;;;;5053757;28;20051;-82
2022/05/16 05:05:03;;;;;;;5.90;2.22;;;12.70;99.90;;;;;;5051802;28;20032;-81
2022/05/16 05:07:29;;;;;;;4.15;2.00;;;12.80;99.90;;;;;;5034588;28;20033;-82
2022/05/16 05:15:24;;;;;;;4.88;2.15;;;13.10;99.90;;;;;;5049357;28;20428;-82
2022/05/16 05:17:50;;;;;;;4.32;2.30;;;13.10;99.90;;;;;;5058556;28;20059;-82
2022/05/16 05:20:17;;;;;;;5.00;2.08;;;13.20;99.90;;;;;;5044415;28;20044;-82
2022/05/16 05:22:45;;;;;;;4.10;2.00;;;13.20;99.90;;;;;;5062330;28;20044;-83
2022/05/16 05:25:15;;;;;;;4.85;2.33;;;13.30;99.90;;;;;;5029415;28;20066;-82
2022/05/16 05:27:42;;;;;;;5.63;2.10;;;13.40;99.90;;;;;;5059013;28;20047;-82
2022/05/16 05:30:09;;;;;;;;;;;13.40;99.90;;;;;;5058320;28;20068;-83
2022/05/16 05:32:35;;;;;;;3.15;1.85;;;13.40;99.90;;;;;;5041231;28;19916;-82
2022/05/16 05:35:02;;;;;;;5.75;2.28;;;13.50;99.90;;;;;;5028175;28;20032;-82
2022/05/16 05:37:27;;;;;;;;;;;13.50;99.90;;;;;;5025596;28;20043;-82
2022/05/16 05:39:54;;;;;;;7.57;2.15;;;13.60;99.90;;;;;;5056595;28;20335;-82
2022/05/16 05:42:20;;;;;;;4.32;1.98;;;13.70;99.90;;;;;;5040302;28;20039;-82
2022/05/16 05:44:46;;;;;;;4.38;2.13;;;13.70;99.90;;;;;;5041223;28;20064;-83
2022/05/16 05:47:11;;;;;;;5.07;2.30;;;13.80;99.90;;;;;;5046973;28;20033;-82
2022/05/16 05:49:37;;;;;;;4.32;2.20;;;13.70;99.90;;;;;;5041176;28;20040;-82
2022/05/16 05:52:03;;;;;;;5.05;2.40;;;13.90;99.90;;;;;;5039004;28;20036;-83
2022/05/16 05:54:29;;;;;;;5.85;2.30;;;14.00;99.90;;;;;;5008875;28;20123;-81
2022/05/16 05:56:54;;;;;;;4.43;2.20;;;14.10;99.90;;;;;;5024194;28;20071;-82
2022/05/16 05:59:20;;;;;;;3.42;2.00;;;14.10;99.90;;;;;;5023331;28;20060;-83
2022/05/16 06:01:46;;;;;;;5.38;2.30;;;14.10;99.90;;;;;;5024460;28;20111;-83
2022/05/16 06:04:12;;;;;;;5.93;2.50;;;14.00;99.90;;;;;;5043596;28;20032;-82
2022/05/16 06:06:40;;;;;;;5.13;2.00;;;14.00;99.90;;;;;;5064042;28;20702;-81
2022/05/16 06:09:06;;;;;;;4.97;2.72;;;14.00;99.90;;;;;;5065295;28;20054;-82
2022/05/16 06:11:32;;;;;;;6.07;2.55;;;14.10;99.90;;;;;;5046234;28;20156;-82
2022/05/16 06:13:58;;;;;;;4.80;2.45;;;14.40;99.90;;;;;;5030368;28;20036;-82
2022/05/16 06:16:24;;;;;;;6.85;2.50;;;14.40;99.90;;;;;;5030241;28;20420;-82
2022/05/16 06:18:49;;;;;;;5.22;2.50;;;14.50;99.90;;;;;;5049214;28;20082;-82
2022/05/16 06:21:15;;;;;;;8.77;2.85;;;14.50;99.90;;;;;;5030436;28;20511;-82
2022/05/16 06:23:41;;;;;;;7.63;2.50;;;14.60;99.90;;;;;;5049524;28;20041;-82
2022/05/16 06:26:07;;;;;;;5.72;2.30;;;14.60;99.90;;;;;;5046177;28;20041;-82
2022/05/16 06:28:37;;;;;;;7.18;2.47;;;14.70;99.90;;;;;;5027184;28;20079;-82
2022/05/16 06:31:04;;;;;;;5.10;2.20;;;14.70;99.90;;;;;;5044182;28;20047;-82
2022/05/16 06:33:30;;;;;;;6.40;2.47;;;14.90;99.90;;;;;;5044396;28;20037;-82
2022/05/16 06:35:57;;;;;;;5.90;2.47;;;15.10;99.90;;;;;;5043293;28;20048;-82
2022/05/16 06:38:28;;;;;;;7.30;2.35;;;15.30;99.90;;;;;;5028946;28;20036;-82
2022/05/16 06:40:55;;;;;;;6.03;2.40;;;15.60;99.90;;;;;;5040831;28;20507;-82
2022/05/16 06:43:23;;;;;;;5.45;2.25;;;16.00;99.90;;;;;;5044679;28;20040;-82
2022/05/16 06:45:50;;;;;;;6.15;2.45;;;16.50;99.90;;;;;;5058289;28;20492;-82
2022/05/16 06:48:16;;;;;;;7.88;2.50;;;16.90;99.90;;;;;;5060836;28;20063;-82
2022/05/16 06:50:43;;;;;;;;;;;17.10;99.90;;;;;;5043103;28;20115;-82
2022/05/16 06:53:13;;;;;;;6.75;2.20;;;17.40;99.90;;;;;;5058287;28;19916;-82
2022/05/16 06:55:38;;;;;;;6.53;2.33;;;17.70;99.90;;;;;;5059794;28;20033;-83
2022/05/16 06:58:04;;;;;;;6.60;2.53;;;17.90;99.90;;;;;;5041449;28;20048;-83
2022/05/16 07:00:30;;;;;;;9.88;2.25;;;18.10;99.90;;;;;;5042743;28;20048;-82
2022/05/16 07:02:55;;;;;;;8.82;2.05;;;18.10;99.90;;;;;;5040630;28;20036;-83
2022/05/16 07:05:21;;;;;;;8.65;1.98;;;18.40;99.90;;;;;;5041200;28;20036;-82
2022/05/16 07:07:47;;;;;;;6.07;2.17;;;18.70;99.90;;;;;;5057659;28;20032;-82
2022/05/16 07:10:13;;;;;;;5.32;2.33;;;18.80;99.90;;;;;;5056617;28;20043;-82
2022/05/16 07:12:38;;;;;;;7.47;2.65;;;19.10;99.90;;;;;;5040335;28;20036;-82
2022/05/16 07:15:05;;;;;;;4.07;1.77;;;19.10;99.90;;;;;;5040128;28;20090;-82
2022/05/16 07:17:31;;;;;;;6.90;1.88;;;18.90;99.90;;;;;;5023438;28;20059;-82
2022/05/16 07:19:56;;;;;;;12.20;2.60;;;18.80;99.90;;;;;;5056645;28;20044;-82
2022/05/16 07:22:22;;;;;;;7.63;2.40;;;18.90;99.90;;;;;;5056405;28;20105;-83
2022/05/16 07:24:51;;;;;;;7.38;1.75;;;19.00;99.90;;;;;;5004064;28;20091;-82
2022/05/16 07:30:02;;;;;;;10.07;2.40;;;19.40;99.90;;;;;;5040707;28;20033;-82
2022/05/16 07:32:41;;;;;;;7.72;2.30;;;19.80;99.90;;;;;;5039956;28;20047;-82
2022/05/16 07:35:13;;;;;;;6.30;1.80;;;20.20;99.90;;;;;;5056158;28;20105;-82
2022/05/16 07:37:40;;;;;;;6.22;2.20;;;20.30;99.90;;;;;;5049512;28;20089;-82
2022/05/16 07:40:08;;;;;;;6.20;2.08;;;20.30;99.90;;;;;;5055359;28;20048;-82
2022/05/16 07:42:34;;;;;;;7.13;2.53;;;20.50;99.90;;;;;;5032037;28;20036;-82
2022/05/16 07:45:01;;;;;;;5.05;1.90;;;20.50;99.90;;;;;;5038543;28;20036;-82
2022/05/16 07:47:26;;;;;;;;;;;20.50;99.90;;;;;;5039646;28;20037;-82
2022/05/16 07:49:52;;;;;;;8.55;2.33;;;20.60;99.90;;;;;;5039362;28;19939;-82
2022/05/16 07:52:18;;;;;;;6.05;2.22;;;20.80;99.90;;;;;;5055824;28;20036;-82
2022/05/16 07:54:44;;;;;;;6.68;2.20;;;20.80;99.90;;;;;;5039112;28;20047;-82
2022/05/16 07:57:09;;;;;;;4.78;1.85;;;20.90;99.90;;;;;;5055268;28;20076;-82
2022/05/16 07:59:35;;;;;;;8.32;2.08;;;21.20;99.90;;;;;;5038395;28;20097;-82
2022/05/16 08:02:01;;;;;;;7.45;2.25;;;21.30;99.90;;;;;;5055096;28;20564;-81
2022/05/16 08:04:27;;;;;;;7.38;2.13;;;21.40;99.90;;;;;;5054662;28;20032;-82
2022/05/16 08:06:53;;;;;;;5.28;2.15;;;21.50;99.90;;;;;;5021260;28;20102;-82
2022/05/16 08:12:03;;;;;;;4.90;2.05;;;22.00;99.90;;;;;;5051002;28;20045;-82
2022/05/16 08:14:29;;;;;;;13.93;2.40;;;22.20;99.90;;;;;;5038204;28;20127;-82
2022/05/16 08:16:54;;;;;;;;;;;22.20;99.90;;;;;;5055263;28;20520;-83
2022/05/16 08:19:20;;;;;;;7.00;2.30;;;22.20;99.90;;;;;;5055029;28;20008;-83
2022/05/16 08:21:48;;;;;;;5.20;2.22;;;22.10;99.90;;;;;;5055231;28;20412;-82
2022/05/16 08:24:15;;;;;;;6.65;2.20;;;22.40;99.90;;;;;;5035512;28;20459;-82
2022/05/16 08:26:40;;;;;;;4.55;1.88;;;22.50;99.90;;;;;;5054751;28;20098;-83
2022/05/16 08:29:06;;;;;;;;;;;22.50;99.90;;;;;;5055305;28;20036;-82
2022/05/16 08:31:32;;;;;;;5.63;2.22;;;22.60;99.90;;;;;;5054329;28;19960;-82
2022/05/16 08:33:58;;;;;;;7.65;2.25;;;22.80;99.90;;;;;;5054420;28;20094;-83
2022/05/16 08:42:02;;;;;;;7.65;2.38;;;23.20;99.80;;;;;;5052164;28;20114;-82
2022/05/16 08:44:41;;;;;;;7.13;1.92;;;23.30;99.30;;;;;;5053977;28;20044;-82
2022/05/16 08:47:35;;;;;;;8.07;2.10;;;23.50;98.80;;;;;;5053465;28;20046;-83
2022/05/16 08:50:08;;;;;;;20.77;2.33;;;23.90;98.30;;;;;;5045727;28;20032;-83
2022/05/16 08:52:56;;;;;;;7.05;2.42;;;24.10;98.30;;;;;;5052394;28;20112;-83
2022/05/16 08:55:33;;;;;;;6.20;1.95;;;24.00;98.00;;;;;;5048844;28;20094;-83
2022/05/16 08:58:19;;;;;;;7.75;1.92;;;24.00;98.20;;;;;;5037343;28;20044;-82
2022/05/16 09:00:55;;;;;;;6.60;1.92;;;24.20;98.10;;;;;;5035542;28;20488;-82
2022/05/16 09:03:39;;;;;;;6.47;1.85;;;24.20;97.60;;;;;;5051817;28;20033;-82
2022/05/16 09:06:34;;;;;;;6.20;1.95;;;24.40;97.70;;;;;;5051556;28;20123;-83
2022/05/16 09:09:08;;;;;;;7.10;2.05;;;24.50;97.30;;;;;;5046741;28;20037;-83
2022/05/16 09:11:34;;;;;;;5.75;1.73;;;24.60;97.20;;;;;;5051427;28;20458;-82
2022/05/16 09:14:04;;;;;;;;;;;24.70;97.50;;;;;;5054071;28;20028;-81
2022/05/16 09:16:42;;;;;;;5.97;1.85;;;24.80;97.20;;;;;;5053617;28;20379;-81
2022/05/16 09:19:27;;;;;;;7.05;2.15;;;24.90;97.20;;;;;;5052259;28;20170;-82
2022/05/16 09:22:10;;;;;;;6.68;2.33;;;24.70;96.50;;;;;;5051431;28;20051;-82
2022/05/16 09:24:55;;;;;;;6.05;1.77;;;24.60;97.00;;;;;;5049531;28;20051;-82
2022/05/16 09:30:15;;;;;;;9.27;1.95;;;24.90;96.80;;;;;;5051440;28;20040;-82
2022/05/16 09:32:44;;;;;;;7.18;1.88;;;25.30;96.20;;;;;;5053118;28;20105;-82
2022/05/16 09:35:29;;;;;;;10.55;2.10;;;25.50;95.90;;;;;;5052698;28;20116;-82
2022/05/16 09:37:58;;;;;;;8.38;2.05;;;25.40;95.80;;;;;;5036303;28;20043;-82
2022/05/16 09:40:45;;;;;;;6.25;2.20;;;25.40;95.70;;;;;;5034264;28;20119;-80
2022/05/16 09:43:20;;;;;;;6.68;2.00;;;25.40;96.00;;;;;;5052170;28;20063;-82
2022/05/16 09:46:01;;;;;;;6.88;2.13;;;25.60;95.90;;;;;;5036371;28;20124;-83
2022/05/16 09:48:26;;;;;;;6.45;1.98;;;26.10;95.30;;;;;;5053441;28;20107;-82
2022/05/16 09:51:04;;;;;;;5.38;1.90;;;26.10;94.90;;;;;;5053354;28;20070;-82
2022/05/16 09:53:36;;;;;;;8.15;2.20;;;26.00;94.90;;;;;;5052981;28;20048;-82
2022/05/16 09:56:26;;;;;;;5.30;1.98;;;26.00;95.10;;;;;;5053001;28;20115;-82
2022/05/16 09:58:56;;;;;;;6.53;1.90;;;26.00;94.90;;;;;;5036941;28;20044;-81
2022/05/16 10:01:43;;;;;;;8.40;2.10;;;26.50;95.80;;;;;;5036293;28;20045;-82
2022/05/16 10:04:15;;;;;;;6.05;1.70;;;26.90;94.20;;;;;;5084033;28;20044;-81
2022/05/16 10:07:00;;;;;;;5.45;1.92;;;27.30;94.20;;;;;;5052875;28;20079;-82
2022/05/16 10:09:52;;;;;;;8.70;2.08;;;27.50;94.30;;;;;;5036522;28;20029;-83
2022/05/16 10:12:20;;;;;;;6.65;1.77;;;27.90;93.60;;;;;;5052781;28;20076;-82
2022/05/16 10:14:49;;;;;;;8.05;1.70;;;28.20;93.00;;;;;;5053094;28;20403;-81
2022/05/16 10:17:36;;;;;;;5.70;1.83;;;28.40;92.50;;;;;;5052637;28;20055;-81
2022/05/16 10:20:26;;;;;;;5.43;2.05;;;28.80;91.50;;;;;;5035611;28;20053;-82
2022/05/16 10:23:00;;;;;;;8.07;2.05;;;29.30;91.20;;;;;;5051617;28;20044;-82
2022/05/16 10:25:32;;;;;;;7.00;1.80;;;29.10;90.40;;;;;;5052061;28;20048;-82
2022/05/16 10:28:00;;;;;;;8.38;1.70;;;28.90;90.50;;;;;;5050064;28;20032;-82
2022/05/16 10:30:29;;;;;;;4.53;1.80;;;29.10;90.30;;;;;;5036478;28;20037;-82
2022/05/16 10:35:59;;;;;;;4.80;1.83;;;29.10;89.20;;;;;;5052085;28;20097;-82
2022/05/16 10:38:25;;;;;;;7.30;1.90;;;29.10;90.10;;;;;;5052049;28;20124;-82
2022/05/16 10:40:59;;;;;;;7.55;2.15;;;29.20;90.30;;;;;;5052827;28;20503;-82
2022/05/16 10:43:38;;;;;;;6.18;1.85;;;29.40;87.60;;;;;;5052954;28;20439;-82
2022/05/16 10:46:12;;;;;;;5.47;2.00;;;29.30;89.20;;;;;;5051960;28;20447;-82
2022/05/16 10:48:51;;;;;;;5.53;1.70;;;29.60;88.30;;;;;;5035844;28;20071;-82
2022/05/16 10:51:52;;;;;;;4.65;2.10;;;29.90;88.60;;;;;;5052238;28;20090;-81
2022/05/16 10:54:21;;;;;;;5.20;2.00;;;29.90;87.30;;;;;;5055461;28;20048;-82
2022/05/16 10:57:25;;;;;;;4.82;1.65;;;29.80;87.20;;;;;;5056319;28;20047;-82
2022/05/16 11:00:06;;;;;;;5.88;1.75;;;29.30;86.20;;;;;;4994562;28;20057;-82
2022/05/16 11:03:09;;;;;;;6.00;1.88;;;29.40;87.00;;;;;;5039018;28;20079;-80
2022/05/16 11:06:12;;;;;;;4.57;1.83;;;29.10;86.80;;;;;;5054125;28;20511;-82
2022/05/16 11:09:03;;;;;;;7.53;2.13;;;29.00;86.20;;;;;;5038683;28;20429;-82
2022/05/16 11:11:39;;;;;;;5.38;2.10;;;28.90;85.50;;;;;;5039356;28;20036;-81
2022/05/16 11:14:47;;;;;;;6.15;1.83;;;28.50;86.40;;;;;;5055564;28;20112;-82
2022/05/16 11:17:33;;;;;;;8.32;1.88;;;27.90;86.70;;;;;;5038660;28;20465;-82
2022/05/16 11:20:10;;;;;;;5.22;1.90;;;27.60;87.30;;;;;;5038981;28;20048;-82
2022/05/16 11:22:42;;;;;;;5.75;1.80;;;27.50;86.50;;;;;;5055782;28;20446;-83
2022/05/16 11:25:16;;;;;;;5.25;1.85;;;27.50;87.50;;;;;;5054706;28;20047;-81
2022/05/16 11:27:57;;;;;;;7.93;2.00;;;27.30;88.40;;;;;;5039272;28;20423;-81
2022/05/16 11:30:41;;;;;;;4.68;2.03;;;27.30;88.50;;;;;;5054736;28;21073;-81
2022/05/16 11:33:43;;;;;;;7.38;2.20;;;27.30;89.80;;;;;;5052728;28;20048;-81
2022/05/16 11:36:32;;;;;;;5.43;1.70;;;27.20;90.00;;;;;;5053334;28;20044;-81
2022/05/16 11:39:20;;;;;;;4.20;1.77;;;27.10;90.40;;;;;;5053121;28;20041;-83
2022/05/16 11:42:01;;;;;;;8.95;2.05;;;27.00;90.00;;;;;;5041534;28;20128;-82
2022/05/16 11:44:45;;;;;;;7.55;2.00;;;27.00;90.00;;;;;;5054170;28;20045;-82
2022/05/16 11:47:24;;;;;;;3.75;1.60;;;27.10;90.40;;;;;;5052527;28;20464;-81
2022/05/16 11:50:15;;;;;;;6.20;1.98;;;27.10;90.30;;;;;;5050532;28;20112;-82
2022/05/16 11:53:07;;;;;;;3.63;1.92;;;27.20;89.80;;;;;;5054576;28;20035;-82
2022/05/16 12:01:26;;;;;;;7.38;2.70;;;27.00;91.40;;;;;;5053425;28;20113;-81
2022/05/16 12:04:13;;;;;;;6.70;2.28;;;27.00;91.70;;;;;;5049032;28;20048;-82
2022/05/16 12:06:53;;;;;;;6.65;2.50;;;26.80;92.00;;;;;;5036486;28;20037;-82
2022/05/16 12:09:30;;;;;;;9.48;2.70;;;26.90;92.30;;;;;;5053078;28;20429;-82
2022/05/16 12:12:34;;;;;;;7.88;2.40;;;26.90;92.20;;;;;;5053264;28;20047;-82
2022/05/16 12:15:12;;;;;;;6.45;2.80;;;26.90;92.00;;;;;;5054535;28;20058;-81
2022/05/16 12:18:04;;;;;;;5.63;2.90;;;26.80;92.00;;;;;;5054266;28;20039;-82
2022/05/16 12:20:37;;;;;;;7.35;2.50;;;26.70;92.20;;;;;;5052679;28;20051;-83
2022/05/16 12:23:04;;;;;;;7.75;2.60;;;26.60;92.20;;;;;;5054493;28;20378;-82
2022/05/16 12:25:34;;;;;;;8.07;2.47;;;26.60;92.60;;;;;;5021019;28;20485;-82
2022/05/16 12:28:12;;;;;;;11.88;2.58;;;26.60;92.70;;;;;;5037740;28;20389;-82
2022/05/16 12:30:38;;;;;;;9.30;2.88;;;26.50;92.80;;;;;;5035087;28;20028;-82
2022/05/16 12:33:42;;;;;;;9.82;3.15;;;26.50;93.40;;;;;;5054076;28;20093;-82
2022/05/16 12:36:16;;;;;;;10.13;2.70;;;26.60;93.20;;;;;;5040877;28;20052;-81
2022/05/16 12:38:44;;;;;;;8.57;2.92;;;26.40;93.40;;;;;;5069478;28;20395;-82
2022/05/16 12:41:39;;;;;;;9.40;2.90;;;26.20;93.30;;;;;;5037199;28;20048;-82
2022/05/16 12:44:43;;;;;;;9.27;3.08;;;26.20;93.20;;;;;;5053330;28;20115;-82
2022/05/16 12:47:32;;;;;;;7.63;2.92;;;26.10;93.90;;;;;;5040167;28;20072;-82
2022/05/16 12:50:14;;;;;;;9.20;3.00;;;25.90;94.30;;;;;;5053324;28;20123;-81
2022/05/16 12:52:57;;;;;;;12.15;3.28;;;25.90;94.40;;;;;;5051726;28;20135;-82
2022/05/16 12:55:50;;;;;;;7.47;3.03;;;25.90;94.00;;;;;;5050974;28;20119;-81
2022/05/16 12:58:34;;;;;;;8.23;2.97;;;26.00;94.40;;;;;;5033909;28;20033;-82
2022/05/16 13:01:29;;;;;;;6.22;3.00;;;26.10;94.30;;;;;;5051346;28;20144;-82
2022/05/16 13:04:10;;;;;;;10.68;3.05;;;26.30;94.10;;;;;;5050864;28;20036;-82
2022/05/16 13:07:12;;;;;;;7.78;2.90;;;26.40;94.30;;;;;;5051292;28;20040;-81
2022/05/16 13:09:42;;;;;;;9.95;3.50;;;26.60;94.00;;;;;;5036168;28;20038;-82
2022/05/16 13:12:34;;;;;;;8.90;3.50;;;26.70;93.90;;;;;;5053225;28;20121;-81
2022/05/16 13:15:18;;;;;;;13.07;3.42;;;26.90;94.00;;;;;;5084065;28;20036;-81
2022/05/16 13:17:49;;;;;;;8.07;3.15;;;26.90;94.20;;;;;;5036728;28;20369;-81
2022/05/16 13:20:24;;;;;;;7.55;3.03;;;27.00;93.80;;;;;;5052686;28;20056;-82
2022/05/16 13:22:50;;;;;;;8.85;3.38;;;27.10;94.10;;;;;;5053321;28;20119;-82
2022/05/16 13:25:19;;;;;;;11.18;3.30;;;27.00;94.10;;;;;;5052634;28;20166;-81
2022/05/16 13:30:42;;;;;;;8.10;3.42;;;27.10;93.50;;;;;;5051868;28;20072;-81
2022/05/16 13:33:28;;;;;;;7.13;3.40;;;27.10;93.50;;;;;;5052965;28;20037;-83
2022/05/16 13:35:54;;;;;;;7.47;3.10;;;27.20;93.20;;;;;;5036826;28;20542;-83
2022/05/16 13:38:20;;;;;;;9.43;3.55;;;27.10;93.00;;;;;;5052384;28;20037;-82
2022/05/16 13:40:48;;;;;;;7.78;3.10;;;27.00;93.40;;;;;;5052978;28;20041;-82
2022/05/16 13:43:22;;;;;;;8.00;3.20;;;26.90;93.70;;;;;;5050261;28;20044;-83
2022/05/16 13:46:00;;;;;;;6.85;2.90;;;26.90;94.00;;;;;;5052763;28;20044;-82
2022/05/16 13:48:26;;;;;;;8.93;3.28;;;26.60;94.50;;;;;;5036242;28;20029;-81
2022/05/16 13:50:52;;;;;;;5.85;3.00;;;26.50;94.00;;;;;;5036768;28;20035;-82